Benedict, Nebraska
Current Conditions -  °F | °C
As of 10:15 AM on Friday 24 Oct 2014 (Local Time) from KJYR Reporting Station
Haze Haze  
Wind Chill: 59°   Ceiling: Unl
Heat Index: 59°   Visibility: 5mi
Dew Point: 57°   Wind: 8mph
Humidity: 94%   Direction: 230°SW
Pressure: 29.96"   Gusts: NA
Location:  41.01°N, 97.61°W
Report Text: KJYR 241515Z AUTO 23007KT 5SM BR CLR 15/14 A2996 RMK AO2
Loading
Personal Weather Stations






























Interactive Weather Map
Tropical Storm Tracking
New forecast layout! Learn more

10-Day Weather Forecast

Advertisements
Track Severe Weather on mobile